Webcam

2016/07/26 00:20 EBBR 260020Z 31001KT CAVOK 16/13 Q1021 NOSIG

Webcam image

--- Refresh now ---